sensor_id;sensor_type;location;lat;lon;timestamp;pressure;altitude;pressure_sealevel;temperature;humidity
75745;BME280;64359;51.366;-0.222;2023-07-16T00:00:56;100143.60;;;22.85;57.91
75745;BME280;64359;51.366;-0.222;2023-07-16T00:02:00;100142.89;;;22.85;58.08
75745;BME280;64359;51.366;-0.222;2023-07-16T00:03:05;100144.35;;;22.85;58.15
75745;BME280;64359;51.366;-0.222;2023-07-16T00:04:09;100148.48;;;22.85;58.04
75745;BME280;64359;51.366;-0.222;2023-07-16T00:05:13;100146.36;;;22.85;57.96
75745;BME280;64359;51.366;-0.222;2023-07-16T00:06:18;100145.10;;;22.85;58.04
75745;BME280;64359;51.366;-0.222;2023-07-16T00:07:22;100147.70;;;22.84;57.92
75745;BME280;64359;51.366;-0.222;2023-07-16T00:08:26;100148.08;;;22.84;57.94
75745;BME280;64359;51.366;-0.222;2023-07-16T00:09:31;100150.45;;;22.84;58.00
75745;BME280;64359;51.366;-0.222;2023-07-16T00:10:36;100152.76;;;22.84;58.02
75745;BME280;64359;51.366;-0.222;2023-07-16T00:11:40;100150.25;;;22.84;58.15
75745;BME280;64359;51.366;-0.222;2023-07-16T00:12:44;100155.55;;;22.84;58.19
75745;BME280;64359;51.366;-0.222;2023-07-16T00:13:49;100153.21;;;22.84;58.18
75745;BME280;64359;51.366;-0.222;2023-07-16T00:14:53;100155.23;;;22.83;58.27
75745;BME280;64359;51.366;-0.222;2023-07-16T00:15:58;100153.26;;;22.83;58.26
75745;BME280;64359;51.366;-0.222;2023-07-16T00:17:02;100152.27;;;22.83;57.95
75745;BME280;64359;51.366;-0.222;2023-07-16T00:18:07;100152.17;;;22.83;58.17
75745;BME280;64359;51.366;-0.222;2023-07-16T00:19:14;100152.23;;;22.83;58.14
75745;BME280;64359;51.366;-0.222;2023-07-16T00:20:18;100157.61;;;22.83;58.33
75745;BME280;64359;51.366;-0.222;2023-07-16T00:21:22;100155.77;;;22.82;58.16
75745;BME280;64359;51.366;-0.222;2023-07-16T00:22:27;100152.30;;;22.83;58.17
75745;BME280;64359;51.366;-0.222;2023-07-16T00:23:31;100158.36;;;22.82;58.11
75745;BME280;64359;51.366;-0.222;2023-07-16T00:24:35;100158.33;;;22.82;58.36
75745;BME280;64359;51.366;-0.222;2023-07-16T00:25:40;100157.20;;;22.81;58.17
75745;BME280;64359;51.366;-0.222;2023-07-16T00:26:44;100154.23;;;22.82;58.05
75745;BME280;64359;51.366;-0.222;2023-07-16T00:27:48;100157.44;;;22.83;58.28
75745;BME280;64359;51.366;-0.222;2023-07-16T00:28:53;100160.40;;;22.84;58.27
75745;BME280;64359;51.366;-0.222;2023-07-16T00:29:57;100159.95;;;22.85;58.38
75745;BME280;64359;51.366;-0.222;2023-07-16T00:31:01;100157.80;;;22.86;58.27
75745;BME280;64359;51.366;-0.222;2023-07-16T00:32:07;100157.83;;;22.87;58.21
75745;BME280;64359;51.366;-0.222;2023-07-16T00:33:11;100163.73;;;22.87;58.17
75745;BME280;64359;51.366;-0.222;2023-07-16T00:34:15;100162.71;;;22.88;58.11
75745;BME280;64359;51.366;-0.222;2023-07-16T00:35:20;100165.22;;;22.88;58.14
75745;BME280;64359;51.366;-0.222;2023-07-16T00:36:24;100166.06;;;22.89;58.03
75745;BME280;64359;51.366;-0.222;2023-07-16T00:37:28;100165.68;;;22.89;58.04
75745;BME280;64359;51.366;-0.222;2023-07-16T00:38:33;100167.73;;;22.90;57.96
75745;BME280;64359;51.366;-0.222;2023-07-16T00:39:37;100168.42;;;22.90;58.01
75745;BME280;64359;51.366;-0.222;2023-07-16T00:40:41;100164.59;;;22.90;58.06
75745;BME280;64359;51.366;-0.222;2023-07-16T00:41:46;100167.14;;;22.90;58.15
75745;BME280;64359;51.366;-0.222;2023-07-16T00:42:50;100166.88;;;22.91;58.05
75745;BME280;64359;51.366;-0.222;2023-07-16T00:43:54;100164.54;;;22.91;58.08
75745;BME280;64359;51.366;-0.222;2023-07-16T00:44:58;100169.17;;;22.91;58.16
75745;BME280;64359;51.366;-0.222;2023-07-16T00:46:03;100164.16;;;22.90;57.86
75745;BME280;64359;51.366;-0.222;2023-07-16T00:47:07;100166.46;;;22.91;57.91
75745;BME280;64359;51.366;-0.222;2023-07-16T00:48:12;100166.50;;;22.91;58.11
75745;BME280;64359;51.366;-0.222;2023-07-16T00:49:17;100168.51;;;22.91;58.11
75745;BME280;64359;51.366;-0.222;2023-07-16T00:50:21;100163.29;;;22.90;58.09
75745;BME280;64359;51.366;-0.222;2023-07-16T00:51:27;100167.64;;;22.90;58.00
75745;BME280;64359;51.366;-0.222;2023-07-16T00:52:33;100169.48;;;22.90;58.22
75745;BME280;64359;51.366;-0.222;2023-07-16T00:53:37;100169.23;;;22.89;58.14
75745;BME280;64359;51.366;-0.222;2023-07-16T00:54:42;100172.86;;;22.89;58.24
75745;BME280;64359;51.366;-0.222;2023-07-16T00:55:47;100182.86;;;22.89;58.10
75745;BME280;64359;51.366;-0.222;2023-07-16T00:56:52;100184.36;;;22.89;58.11
75745;BME280;64359;51.366;-0.222;2023-07-16T00:57:57;100186.95;;;22.88;58.24
75745;BME280;64359;51.366;-0.222;2023-07-16T00:59:04;100188.67;;;22.88;58.32
75745;BME280;64359;51.366;-0.222;2023-07-16T01:00:10;100190.98;;;22.86;58.16
75745;BME280;64359;51.366;-0.222;2023-07-16T01:01:15;100192.02;;;22.84;58.23
75745;BME280;64359;51.366;-0.222;2023-07-16T01:02:19;100194.20;;;22.85;58.17
75745;BME280;64359;51.366;-0.222;2023-07-16T01:03:24;100193.20;;;22.84;58.26
75745;BME280;64359;51.366;-0.222;2023-07-16T01:04:28;100194.66;;;22.84;58.22
75745;BME280;64359;51.366;-0.222;2023-07-16T01:05:36;100197.21;;;22.84;58.26
75745;BME280;64359;51.366;-0.222;2023-07-16T01:06:46;100194.67;;;22.83;58.28
75745;BME280;64359;51.366;-0.222;2023-07-16T01:07:58;100198.35;;;22.82;58.37
75745;BME280;64359;51.366;-0.222;2023-07-16T01:09:11;100196.59;;;22.82;58.29
75745;BME280;64359;51.366;-0.222;2023-07-16T01:10:18;100197.22;;;22.81;58.23
75745;BME280;64359;51.366;-0.222;2023-07-16T01:11:22;100194.19;;;22.81;58.24
75745;BME280;64359;51.366;-0.222;2023-07-16T01:12:28;100191.19;;;22.80;58.26
75745;BME280;64359;51.366;-0.222;2023-07-16T01:13:34;100193.14;;;22.80;58.58
75745;BME280;64359;51.366;-0.222;2023-07-16T01:14:39;100195.48;;;22.80;58.41
75745;BME280;64359;51.366;-0.222;2023-07-16T01:15:44;100187.55;;;22.78;58.42
75745;BME280;64359;51.366;-0.222;2023-07-16T01:16:48;100191.94;;;22.80;58.45
75745;BME280;64359;51.366;-0.222;2023-07-16T01:17:54;100193.98;;;22.80;58.55
75745;BME280;64359;51.366;-0.222;2023-07-16T01:18:59;100194.07;;;22.79;58.40
75745;BME280;64359;51.366;-0.222;2023-07-16T01:20:03;100196.58;;;22.79;58.32
75745;BME280;64359;51.366;-0.222;2023-07-16T01:21:08;100197.70;;;22.79;58.40
75745;BME280;64359;51.366;-0.222;2023-07-16T01:22:22;100203.17;;;22.78;58.44
75745;BME280;64359;51.366;-0.222;2023-07-16T01:24:03;100197.00;;;22.77;58.35
75745;BME280;64359;51.366;-0.222;2023-07-16T01:25:32;100201.45;;;22.76;58.52
75745;BME280;64359;51.366;-0.222;2023-07-16T01:26:56;100197.77;;;22.75;58.48
75745;BME280;64359;51.366;-0.222;2023-07-16T01:28:20;100196.57;;;22.73;58.59
75745;BME280;64359;51.366;-0.222;2023-07-16T01:29:34;100198.12;;;22.72;58.51
75745;BME280;64359;51.366;-0.222;2023-07-16T01:30:42;100198.33;;;22.72;58.55
75745;BME280;64359;51.366;-0.222;2023-07-16T01:31:49;100197.82;;;22.72;58.72
75745;BME280;64359;51.366;-0.222;2023-07-16T01:32:55;100196.39;;;22.71;58.64
75745;BME280;64359;51.366;-0.222;2023-07-16T01:34:00;100202.54;;;22.72;58.69
75745;BME280;64359;51.366;-0.222;2023-07-16T01:35:08;100201.83;;;22.72;58.58
75745;BME280;64359;51.366;-0.222;2023-07-16T01:36:14;100197.35;;;22.71;58.67
75745;BME280;64359;51.366;-0.222;2023-07-16T01:37:19;100196.80;;;22.71;58.83
75745;BME280;64359;51.366;-0.222;2023-07-16T01:38:24;100195.21;;;22.71;58.72
75745;BME280;64359;51.366;-0.222;2023-07-16T01:39:28;100194.50;;;22.71;58.77
75745;BME280;64359;51.366;-0.222;2023-07-16T01:40:33;100192.67;;;22.71;58.68
75745;BME280;64359;51.366;-0.222;2023-07-16T01:41:38;100195.30;;;22.72;58.85
75745;BME280;64359;51.366;-0.222;2023-07-16T01:42:42;100194.50;;;22.71;58.82
75745;BME280;64359;51.366;-0.222;2023-07-16T01:43:46;100197.80;;;22.70;58.80
75745;BME280;64359;51.366;-0.222;2023-07-16T01:44:51;100196.88;;;22.71;58.84
75745;BME280;64359;51.366;-0.222;2023-07-16T01:45:55;100197.97;;;22.70;58.71
75745;BME280;64359;51.366;-0.222;2023-07-16T01:47:10;100194.05;;;22.71;58.79
75745;BME280;64359;51.366;-0.222;2023-07-16T01:48:30;100200.75;;;22.73;58.72
75745;BME280;64359;51.366;-0.222;2023-07-16T01:49:36;100202.13;;;22.73;58.79
75745;BME280;64359;51.366;-0.222;2023-07-16T01:50:40;100199.23;;;22.74;58.62
75745;BME280;64359;51.366;-0.222;2023-07-16T01:51:45;100203.98;;;22.76;58.39
75745;BME280;64359;51.366;-0.222;2023-07-16T01:52:49;100206.25;;;22.76;58.45
75745;BME280;64359;51.366;-0.222;2023-07-16T01:53:53;100205.82;;;22.76;58.50
75745;BME280;64359;51.366;-0.222;2023-07-16T01:54:57;100208.16;;;22.78;58.72
75745;BME280;64359;51.366;-0.222;2023-07-16T01:56:03;100210.58;;;22.79;58.56
75745;BME280;64359;51.366;-0.222;2023-07-16T01:57:07;100207.77;;;22.79;58.53
75745;BME280;64359;51.366;-0.222;2023-07-16T01:58:11;100210.95;;;22.80;58.43
75745;BME280;64359;51.366;-0.222;2023-07-16T01:59:16;100213.54;;;22.79;58.17
75745;BME280;64359;51.366;-0.222;2023-07-16T02:00:20;100219.64;;;22.80;58.33
75745;BME280;64359;51.366;-0.222;2023-07-16T02:01:25;100219.06;;;22.80;58.53
75745;BME280;64359;51.366;-0.222;2023-07-16T02:02:29;100216.88;;;22.80;58.39
75745;BME280;64359;51.366;-0.222;2023-07-16T02:03:33;100226.79;;;22.81;58.24
75745;BME280;64359;51.366;-0.222;2023-07-16T02:04:38;100227.74;;;22.80;58.44
75745;BME280;64359;51.366;-0.222;2023-07-16T02:05:42;100228.83;;;22.80;58.44
75745;BME280;64359;51.366;-0.222;2023-07-16T02:06:46;100229.87;;;22.81;58.23
75745;BME280;64359;51.366;-0.222;2023-07-16T02:07:51;100230.08;;;22.80;58.35
75745;BME280;64359;51.366;-0.222;2023-07-16T02:08:56;100231.76;;;22.80;58.37
75745;BME280;64359;51.366;-0.222;2023-07-16T02:10:00;100228.91;;;22.80;58.47
75745;BME280;64359;51.366;-0.222;2023-07-16T02:11:04;100230.38;;;22.79;58.34
75745;BME280;64359;51.366;-0.222;2023-07-16T02:12:09;100229.66;;;22.79;58.41
75745;BME280;64359;51.366;-0.222;2023-07-16T02:13:13;100228.09;;;22.79;58.28
75745;BME280;64359;51.366;-0.222;2023-07-16T02:14:17;100230.88;;;22.79;58.53
75745;BME280;64359;51.366;-0.222;2023-07-16T02:15:22;100232.39;;;22.78;58.35
75745;BME280;64359;51.366;-0.222;2023-07-16T02:16:26;100230.77;;;22.78;58.42
75745;BME280;64359;51.366;-0.222;2023-07-16T02:17:30;100228.84;;;22.78;58.46
75745;BME280;64359;51.366;-0.222;2023-07-16T02:18:35;100236.03;;;22.77;58.27
75745;BME280;64359;51.366;-0.222;2023-07-16T02:19:39;100242.34;;;22.77;58.33
75745;BME280;64359;51.366;-0.222;2023-07-16T02:20:44;100241.89;;;22.76;58.28
75745;BME280;64359;51.366;-0.222;2023-07-16T02:21:48;100234.86;;;22.76;58.41
75745;BME280;64359;51.366;-0.222;2023-07-16T02:22:53;100233.86;;;22.75;58.31
75745;BME280;64359;51.366;-0.222;2023-07-16T02:23:57;100233.41;;;22.75;58.32
75745;BME280;64359;51.366;-0.222;2023-07-16T02:25:02;100240.34;;;22.74;58.47
75745;BME280;64359;51.366;-0.222;2023-07-16T02:26:06;100240.27;;;22.74;58.41
75745;BME280;64359;51.366;-0.222;2023-07-16T02:27:11;100238.30;;;22.74;58.44
75745;BME280;64359;51.366;-0.222;2023-07-16T02:28:15;100243.02;;;22.74;58.33
75745;BME280;64359;51.366;-0.222;2023-07-16T02:29:19;100238.42;;;22.73;58.56
75745;BME280;64359;51.366;-0.222;2023-07-16T02:30:24;100240.09;;;22.72;58.41
75745;BME280;64359;51.366;-0.222;2023-07-16T02:31:28;100241.19;;;22.72;58.60
75745;BME280;64359;51.366;-0.222;2023-07-16T02:32:32;100243.52;;;22.72;58.53
75745;BME280;64359;51.366;-0.222;2023-07-16T02:33:37;100247.40;;;22.72;58.52
75745;BME280;64359;51.366;-0.222;2023-07-16T02:34:41;100238.41;;;22.71;58.49
75745;BME280;64359;51.366;-0.222;2023-07-16T02:35:48;100244.51;;;22.70;58.46
75745;BME280;64359;51.366;-0.222;2023-07-16T02:36:54;100241.59;;;22.71;58.76
75745;BME280;64359;51.366;-0.222;2023-07-16T02:37:58;100244.17;;;22.70;58.51
75745;BME280;64359;51.366;-0.222;2023-07-16T02:39:03;100243.17;;;22.69;58.49
75745;BME280;64359;51.366;-0.222;2023-07-16T02:40:09;100247.52;;;22.69;58.51
75745;BME280;64359;51.366;-0.222;2023-07-16T02:41:14;100248.61;;;22.68;58.53
75745;BME280;64359;51.366;-0.222;2023-07-16T02:42:18;100249.86;;;22.68;58.56
75745;BME280;64359;51.366;-0.222;2023-07-16T02:43:22;100251.00;;;22.68;58.62
75745;BME280;64359;51.366;-0.222;2023-07-16T02:44:27;100252.66;;;22.67;58.73
75745;BME280;64359;51.366;-0.222;2023-07-16T02:45:31;100253.04;;;22.67;58.80
75745;BME280;64359;51.366;-0.222;2023-07-16T02:46:35;100254.71;;;22.67;58.64
75745;BME280;64359;51.366;-0.222;2023-07-16T02:47:40;100256.38;;;22.66;58.73
75745;BME280;64359;51.366;-0.222;2023-07-16T02:48:44;100258.69;;;22.66;58.58
75745;BME280;64359;51.366;-0.222;2023-07-16T02:49:51;100260.10;;;22.66;58.46
75745;BME280;64359;51.366;-0.222;2023-07-16T02:50:56;100261.98;;;22.65;58.65
75745;BME280;64359;51.366;-0.222;2023-07-16T02:52:00;100265.11;;;22.65;58.83
75745;BME280;64359;51.366;-0.222;2023-07-16T02:53:05;100259.52;;;22.65;58.69
75745;BME280;64359;51.366;-0.222;2023-07-16T02:54:10;100260.15;;;22.64;58.68
75745;BME280;64359;51.366;-0.222;2023-07-16T02:55:14;100264.38;;;22.64;58.74
75745;BME280;64359;51.366;-0.222;2023-07-16T02:56:19;100271.43;;;22.64;58.53
75745;BME280;64359;51.366;-0.222;2023-07-16T02:57:23;100272.35;;;22.64;58.65
75745;BME280;64359;51.366;-0.222;2023-07-16T02:58:28;100271.52;;;22.63;58.47
75745;BME280;64359;51.366;-0.222;2023-07-16T02:59:32;100271.73;;;22.63;58.57
75745;BME280;64359;51.366;-0.222;2023-07-16T03:00:36;100270.11;;;22.60;58.78
75745;BME280;64359;51.366;-0.222;2023-07-16T03:01:41;100276.23;;;22.63;58.62
75745;BME280;64359;51.366;-0.222;2023-07-16T03:02:45;100273.30;;;22.65;58.75
75745;BME280;64359;51.366;-0.222;2023-07-16T03:03:49;100271.46;;;22.65;58.77
75745;BME280;64359;51.366;-0.222;2023-07-16T03:04:53;100276.17;;;22.66;58.99
75745;BME280;64359;51.366;-0.222;2023-07-16T03:05:58;100276.27;;;22.67;58.84
75745;BME280;64359;51.366;-0.222;2023-07-16T03:07:03;100280.19;;;22.67;58.70
75745;BME280;64359;51.366;-0.222;2023-07-16T03:08:07;100278.73;;;22.69;58.74
75745;BME280;64359;51.366;-0.222;2023-07-16T03:09:11;100282.98;;;22.70;58.61
75745;BME280;64359;51.366;-0.222;2023-07-16T03:10:16;100280.93;;;22.70;58.53
75745;BME280;64359;51.366;-0.222;2023-07-16T03:11:20;100284.61;;;22.71;58.44
75745;BME280;64359;51.366;-0.222;2023-07-16T03:12:24;100287.45;;;22.71;58.49
75745;BME280;64359;51.366;-0.222;2023-07-16T03:13:29;100286.84;;;22.69;58.61
75745;BME280;64359;51.366;-0.222;2023-07-16T03:14:33;100292.68;;;22.72;58.70
75745;BME280;64359;51.366;-0.222;2023-07-16T03:15:37;100291.56;;;22.72;58.60
75745;BME280;64359;51.366;-0.222;2023-07-16T03:16:42;100287.30;;;22.70;58.51
75745;BME280;64359;51.366;-0.222;2023-07-16T03:17:46;100290.69;;;22.72;58.50
75745;BME280;64359;51.366;-0.222;2023-07-16T03:18:50;100291.80;;;22.71;58.45
75745;BME280;64359;51.366;-0.222;2023-07-16T03:19:55;100291.55;;;22.72;58.38
75745;BME280;64359;51.366;-0.222;2023-07-16T03:20:59;100297.59;;;22.72;58.24
75745;BME280;64359;51.366;-0.222;2023-07-16T03:22:04;100303.35;;;22.72;58.52
75745;BME280;64359;51.366;-0.222;2023-07-16T03:23:08;100298.70;;;22.71;58.46
75745;BME280;64359;51.366;-0.222;2023-07-16T03:24:13;100300.37;;;22.71;58.39
75745;BME280;64359;51.366;-0.222;2023-07-16T03:25:17;100303.12;;;22.71;58.37
75745;BME280;64359;51.366;-0.222;2023-07-16T03:26:21;100306.83;;;22.70;58.16
75745;BME280;64359;51.366;-0.222;2023-07-16T03:27:26;100306.63;;;22.69;58.52
75745;BME280;64359;51.366;-0.222;2023-07-16T03:28:30;100305.50;;;22.69;58.14
75745;BME280;64359;51.366;-0.222;2023-07-16T03:29:35;100308.44;;;22.69;58.36
75745;BME280;64359;51.366;-0.222;2023-07-16T03:30:39;100310.85;;;22.68;58.32
75745;BME280;64359;51.366;-0.222;2023-07-16T03:31:43;100310.40;;;22.67;58.55
75745;BME280;64359;51.366;-0.222;2023-07-16T03:32:48;100317.87;;;22.67;58.52
75745;BME280;64359;51.366;-0.222;2023-07-16T03:33:52;100316.48;;;22.66;58.59
75745;BME280;64359;51.366;-0.222;2023-07-16T03:34:56;100322.59;;;22.65;58.53
75745;BME280;64359;51.366;-0.222;2023-07-16T03:36:01;100326.98;;;22.65;58.40
75745;BME280;64359;51.366;-0.222;2023-07-16T03:37:05;100326.86;;;22.65;58.38
75745;BME280;64359;51.366;-0.222;2023-07-16T03:38:10;100325.31;;;22.64;58.65
75745;BME280;64359;51.366;-0.222;2023-07-16T03:39:14;100329.04;;;22.63;58.46
75745;BME280;64359;51.366;-0.222;2023-07-16T03:40:23;100327.86;;;22.63;58.28
75745;BME280;64359;51.366;-0.222;2023-07-16T03:41:27;100330.41;;;22.63;58.35
75745;BME280;64359;51.366;-0.222;2023-07-16T03:42:32;100324.95;;;22.62;58.47
75745;BME280;64359;51.366;-0.222;2023-07-16T03:43:36;100332.80;;;22.61;58.59
75745;BME280;64359;51.366;-0.222;2023-07-16T03:44:40;100331.08;;;22.60;58.48
75745;BME280;64359;51.366;-0.222;2023-07-16T03:45:45;100332.92;;;22.60;58.72
75745;BME280;64359;51.366;-0.222;2023-07-16T03:46:49;100334.05;;;22.60;58.74
75745;BME280;64359;51.366;-0.222;2023-07-16T03:47:53;100331.42;;;22.59;58.59
75745;BME280;64359;51.366;-0.222;2023-07-16T03:48:58;100333.63;;;22.59;58.60
75745;BME280;64359;51.366;-0.222;2023-07-16T03:50:02;100337.98;;;22.59;58.65
75745;BME280;64359;51.366;-0.222;2023-07-16T03:51:07;100337.73;;;22.58;58.84
75745;BME280;64359;51.366;-0.222;2023-07-16T03:52:11;100341.02;;;22.58;58.62
75745;BME280;64359;51.366;-0.222;2023-07-16T03:53:15;100342.24;;;22.57;58.61
75745;BME280;64359;51.366;-0.222;2023-07-16T03:54:20;100344.42;;;22.57;58.70
75745;BME280;64359;51.366;-0.222;2023-07-16T03:55:24;100346.09;;;22.57;58.56
75745;BME280;64359;51.366;-0.222;2023-07-16T03:56:28;100349.96;;;22.56;58.63
75745;BME280;64359;51.366;-0.222;2023-07-16T03:57:33;100354.23;;;22.56;58.66
75745;BME280;64359;51.366;-0.222;2023-07-16T03:58:37;100356.27;;;22.55;58.67
75745;BME280;64359;51.366;-0.222;2023-07-16T03:59:41;100359.58;;;22.55;58.69
75745;BME280;64359;51.366;-0.222;2023-07-16T04:00:46;100356.70;;;22.55;58.74
75745;BME280;64359;51.366;-0.222;2023-07-16T04:01:50;100361.84;;;22.54;58.90
75745;BME280;64359;51.366;-0.222;2023-07-16T04:02:54;100366.69;;;22.53;58.73
75745;BME280;64359;51.366;-0.222;2023-07-16T04:03:59;100363.30;;;22.53;58.84
75745;BME280;64359;51.366;-0.222;2023-07-16T04:05:04;100365.77;;;22.53;58.74
75745;BME280;64359;51.366;-0.222;2023-07-16T04:06:09;100371.48;;;22.53;58.72
75745;BME280;64359;51.366;-0.222;2023-07-16T04:07:14;100371.74;;;22.52;58.66
75745;BME280;64359;51.366;-0.222;2023-07-16T04:08:18;100370.90;;;22.51;58.75
75745;BME280;64359;51.366;-0.222;2023-07-16T04:09:22;100378.72;;;22.51;58.64
75745;BME280;64359;51.366;-0.222;2023-07-16T04:10:27;100373.16;;;22.51;58.92
75745;BME280;64359;51.366;-0.222;2023-07-16T04:11:31;100374.49;;;22.51;58.77
75745;BME280;64359;51.366;-0.222;2023-07-16T04:12:35;100376.88;;;22.50;58.85
75745;BME280;64359;51.366;-0.222;2023-07-16T04:13:40;100382.21;;;22.51;58.98
75745;BME280;64359;51.366;-0.222;2023-07-16T04:14:44;100381.89;;;22.52;58.97
75745;BME280;64359;51.366;-0.222;2023-07-16T04:15:49;100384.17;;;22.52;58.71
75745;BME280;64359;51.366;-0.222;2023-07-16T04:16:56;100384.52;;;22.54;58.88
75745;BME280;64359;51.366;-0.222;2023-07-16T04:18:00;100387.36;;;22.54;58.91
75745;BME280;64359;51.366;-0.222;2023-07-16T04:19:05;100385.40;;;22.55;58.85
75745;BME280;64359;51.366;-0.222;2023-07-16T04:20:11;100386.02;;;22.56;58.67
75745;BME280;64359;51.366;-0.222;2023-07-16T04:21:15;100382.55;;;22.56;58.80
75745;BME280;64359;51.366;-0.222;2023-07-16T04:22:19;100386.85;;;22.56;58.53
75745;BME280;64359;51.366;-0.222;2023-07-16T04:23:24;100386.61;;;22.57;58.81
75745;BME280;64359;51.366;-0.222;2023-07-16T04:24:28;100393.28;;;22.57;58.57
75745;BME280;64359;51.366;-0.222;2023-07-16T04:25:33;100392.33;;;22.58;58.59
75745;BME280;64359;51.366;-0.222;2023-07-16T04:26:37;100394.70;;;22.57;58.47
75745;BME280;64359;51.366;-0.222;2023-07-16T04:27:42;100395.00;;;22.58;58.54
75745;BME280;64359;51.366;-0.222;2023-07-16T04:28:46;100397.17;;;22.58;58.61
75745;BME280;64359;51.366;-0.222;2023-07-16T04:29:51;100392.04;;;22.58;58.71
75745;BME280;64359;51.366;-0.222;2023-07-16T04:30:55;100396.92;;;22.58;58.57
75745;BME280;64359;51.366;-0.222;2023-07-16T04:31:59;100397.59;;;22.57;58.69
75745;BME280;64359;51.366;-0.222;2023-07-16T04:33:04;100398.63;;;22.58;58.53
75745;BME280;64359;51.366;-0.222;2023-07-16T04:34:08;100398.96;;;22.58;58.42
75745;BME280;64359;51.366;-0.222;2023-07-16T04:35:12;100399.92;;;22.58;58.60
75745;BME280;64359;51.366;-0.222;2023-07-16T04:36:17;100401.42;;;22.57;58.60
75745;BME280;64359;51.366;-0.222;2023-07-16T04:37:21;100403.44;;;22.57;58.57
75745;BME280;64359;51.366;-0.222;2023-07-16T04:38:25;100402.18;;;22.57;58.50
75745;BME280;64359;51.366;-0.222;2023-07-16T04:39:30;100399.34;;;22.57;58.52
75745;BME280;64359;51.366;-0.222;2023-07-16T04:40:35;100403.39;;;22.56;58.51
75745;BME280;64359;51.366;-0.222;2023-07-16T04:41:39;100404.98;;;22.56;58.37
75745;BME280;64359;51.366;-0.222;2023-07-16T04:42:43;100401.27;;;22.56;58.47
75745;BME280;64359;51.366;-0.222;2023-07-16T04:43:47;100401.48;;;22.55;58.49
75745;BME280;64359;51.366;-0.222;2023-07-16T04:44:52;100408.41;;;22.55;58.36
75745;BME280;64359;51.366;-0.222;2023-07-16T04:45:56;100411.86;;;22.55;58.47
75745;BME280;64359;51.366;-0.222;2023-07-16T04:47:00;100408.61;;;22.55;58.53
75745;BME280;64359;51.366;-0.222;2023-07-16T04:48:06;100411.99;;;22.54;58.61
75745;BME280;64359;51.366;-0.222;2023-07-16T04:49:10;100411.12;;;22.54;58.50
75745;BME280;64359;51.366;-0.222;2023-07-16T04:50:14;100416.21;;;22.54;58.54
75745;BME280;64359;51.366;-0.222;2023-07-16T04:51:19;100416.22;;;22.54;58.66
75745;BME280;64359;51.366;-0.222;2023-07-16T04:52:23;100416.30;;;22.53;58.51
75745;BME280;64359;51.366;-0.222;2023-07-16T04:53:27;100413.24;;;22.50;58.42
75745;BME280;64359;51.366;-0.222;2023-07-16T04:54:36;100420.81;;;22.52;58.53
75745;BME280;64359;51.366;-0.222;2023-07-16T04:55:41;100423.48;;;22.52;58.42
75745;BME280;64359;51.366;-0.222;2023-07-16T04:56:45;100424.11;;;22.52;58.36
75745;BME280;64359;51.366;-0.222;2023-07-16T04:57:49;100423.11;;;22.51;58.43
75745;BME280;64359;51.366;-0.222;2023-07-16T04:58:56;100424.45;;;22.50;58.55
75745;BME280;64359;51.366;-0.222;2023-07-16T05:00:00;100424.77;;;22.51;58.41
75745;BME280;64359;51.366;-0.222;2023-07-16T05:01:07;100429.21;;;22.50;58.38
75745;BME280;64359;51.366;-0.222;2023-07-16T05:02:12;100428.84;;;22.49;58.44
75745;BME280;64359;51.366;-0.222;2023-07-16T05:03:17;100433.88;;;22.49;58.44
75745;BME280;64359;51.366;-0.222;2023-07-16T05:04:21;100435.31;;;22.49;58.48
75745;BME280;64359;51.366;-0.222;2023-07-16T05:05:26;100436.69;;;22.48;58.43
75745;BME280;64359;51.366;-0.222;2023-07-16T05:06:30;100434.85;;;22.49;58.61
75745;BME280;64359;51.366;-0.222;2023-07-16T05:07:34;100435.84;;;22.48;58.58
75745;BME280;64359;51.366;-0.222;2023-07-16T05:08:39;100435.14;;;22.48;58.51
75745;BME280;64359;51.366;-0.222;2023-07-16T05:09:43;100439.71;;;22.47;58.74
75745;BME280;64359;51.366;-0.222;2023-07-16T05:10:48;100441.51;;;22.47;58.51
75745;BME280;64359;51.366;-0.222;2023-07-16T05:11:52;100441.41;;;22.47;58.76
75745;BME280;64359;51.366;-0.222;2023-07-16T05:12:56;100441.45;;;22.46;58.31
75745;BME280;64359;51.366;-0.222;2023-07-16T05:14:01;100444.91;;;22.46;58.49
75745;BME280;64359;51.366;-0.222;2023-07-16T05:15:06;100446.63;;;22.45;58.51
75745;BME280;64359;51.366;-0.222;2023-07-16T05:16:11;100445.84;;;22.45;58.40
75745;BME280;64359;51.366;-0.222;2023-07-16T05:17:15;100449.14;;;22.44;58.39
75745;BME280;64359;51.366;-0.222;2023-07-16T05:18:20;100454.44;;;22.44;58.34
75745;BME280;64359;51.366;-0.222;2023-07-16T05:19:25;100455.52;;;22.44;58.48
75745;BME280;64359;51.366;-0.222;2023-07-16T05:20:29;100454.69;;;22.44;58.44
75745;BME280;64359;51.366;-0.222;2023-07-16T05:21:34;100453.23;;;22.44;58.37
75745;BME280;64359;51.366;-0.222;2023-07-16T05:22:38;100453.48;;;22.43;58.47
75745;BME280;64359;51.366;-0.222;2023-07-16T05:23:42;100459.33;;;22.43;58.36
75745;BME280;64359;51.366;-0.222;2023-07-16T05:24:47;100457.70;;;22.43;58.36
75745;BME280;64359;51.366;-0.222;2023-07-16T05:25:51;100458.70;;;22.42;58.43
75745;BME280;64359;51.366;-0.222;2023-07-16T05:26:56;100456.48;;;22.42;58.50
75745;BME280;64359;51.366;-0.222;2023-07-16T05:28:00;100459.41;;;22.42;58.29
75745;BME280;64359;51.366;-0.222;2023-07-16T05:29:04;100460.78;;;22.41;58.31
75745;BME280;64359;51.366;-0.222;2023-07-16T05:30:10;100459.41;;;22.41;58.38
75745;BME280;64359;51.366;-0.222;2023-07-16T05:31:14;100463.38;;;22.41;58.34
75745;BME280;64359;51.366;-0.222;2023-07-16T05:32:19;100468.22;;;22.41;58.39
75745;BME280;64359;51.366;-0.222;2023-07-16T05:33:23;100467.42;;;22.40;58.54
75745;BME280;64359;51.366;-0.222;2023-07-16T05:34:27;100465.76;;;22.41;58.44
75745;BME280;64359;51.366;-0.222;2023-07-16T05:35:32;100465.63;;;22.40;58.31
75745;BME280;64359;51.366;-0.222;2023-07-16T05:36:36;100464.42;;;22.40;58.45